createdAt,value
2019-01-20T00:00:07.425Z,88.48
2019-01-20T00:00:38.618Z,88.36
2019-01-20T00:01:09.773Z,88.31
2019-01-20T00:01:40.973Z,88.25
2019-01-20T00:02:12.155Z,88.10
2019-01-20T00:02:43.307Z,88.12
2019-01-20T00:03:14.479Z,88.17
2019-01-20T00:03:45.737Z,88.13
2019-01-20T00:04:16.850Z,88.05
2019-01-20T00:04:48.026Z,87.95
2019-01-20T00:05:19.173Z,87.78
2019-01-20T00:05:50.600Z,87.67
2019-01-20T00:06:21.778Z,87.56
2019-01-20T00:06:52.960Z,87.54
2019-01-20T00:07:24.138Z,87.62
2019-01-20T00:07:55.312Z,87.56
2019-01-20T00:08:26.491Z,87.50
2019-01-20T00:08:57.717Z,87.45
2019-01-20T00:09:28.894Z,87.44
2019-01-20T00:10:00.053Z,87.47
2019-01-20T00:10:31.231Z,87.43
2019-01-20T00:11:02.404Z,87.29
2019-01-20T00:11:33.564Z,87.19
2019-01-20T00:12:04.745Z,87.05
2019-01-20T00:12:36.235Z,86.94
2019-01-20T00:13:07.407Z,86.90
2019-01-20T00:13:38.583Z,86.88
2019-01-20T00:14:09.782Z,86.83
2019-01-20T00:14:40.967Z,86.86
2019-01-20T00:15:12.140Z,86.79
2019-01-20T00:15:43.295Z,86.78
2019-01-20T00:16:14.463Z,86.74
2019-01-20T00:16:45.629Z,86.77
2019-01-20T00:17:16.834Z,86.84
2019-01-20T00:17:47.989Z,87.06
2019-01-20T00:18:19.158Z,87.16
2019-01-20T00:18:50.320Z,87.28
2019-01-20T00:19:21.498Z,87.42
2019-01-20T00:19:52.684Z,87.77
2019-01-20T00:20:23.919Z,87.91
2019-01-20T00:20:55.104Z,87.93
2019-01-20T00:21:26.274Z,88.01
2019-01-20T00:21:57.433Z,88.06
2019-01-20T00:22:28.632Z,88.12
2019-01-20T00:22:59.797Z,88.15
2019-01-20T00:23:31.002Z,88.22
2019-01-20T00:24:02.171Z,88.33
2019-01-20T00:24:33.343Z,88.34
2019-01-20T00:25:04.532Z,88.39
2019-01-20T00:25:35.728Z,88.42
2019-01-20T00:26:06.898Z,88.39
2019-01-20T00:26:40.203Z,88.37
2019-01-20T00:27:11.387Z,88.32
2019-01-20T00:27:42.547Z,88.28
2019-01-20T00:28:13.712Z,88.20
2019-01-20T00:28:44.924Z,88.15
2019-01-20T00:29:16.088Z,88.10
2019-01-20T00:29:47.258Z,88.18
2019-01-20T00:30:18.458Z,88.22
2019-01-20T00:30:49.620Z,88.23
2019-01-20T00:31:20.794Z,88.20
2019-01-20T00:31:51.996Z,88.23
2019-01-20T00:32:23.189Z,88.20
2019-01-20T00:32:54.389Z,88.11
2019-01-20T00:33:25.553Z,88.01
2019-01-20T00:33:56.721Z,88.01
2019-01-20T00:34:27.893Z,88.06
2019-01-20T00:34:59.066Z,88.12
2019-01-20T00:35:30.232Z,88.04
2019-01-20T00:36:01.391Z,87.97
2019-01-20T00:36:32.567Z,88.01
2019-01-20T00:37:03.751Z,87.84
2019-01-20T00:37:34.941Z,87.71
2019-01-20T00:38:06.105Z,87.62
2019-01-20T00:38:37.335Z,87.59
2019-01-20T00:39:08.518Z,87.52
2019-01-20T00:39:39.700Z,87.53
2019-01-20T00:40:10.865Z,87.56
2019-01-20T00:40:42.044Z,87.63
2019-01-20T00:41:13.229Z,87.73
2019-01-20T00:41:44.390Z,87.96
2019-01-20T00:42:15.563Z,88.00
2019-01-20T00:42:46.768Z,88.06
2019-01-20T00:43:17.950Z,88.06
2019-01-20T00:43:49.123Z,88.19
2019-01-20T00:44:20.277Z,88.29
2019-01-20T00:44:51.434Z,88.31
2019-01-20T00:45:22.599Z,88.45
2019-01-20T00:45:53.759Z,88.51
2019-01-20T00:46:24.934Z,88.51
2019-01-20T00:46:56.097Z,88.74
2019-01-20T00:47:27.306Z,88.90
2019-01-20T00:47:58.485Z,88.97
2019-01-20T00:48:29.649Z,88.99
2019-01-20T00:49:00.823Z,88.99
2019-01-20T00:49:32.013Z,88.89
2019-01-20T00:50:03.159Z,88.63
2019-01-20T00:50:34.333Z,88.34
2019-01-20T00:51:06.556Z,87.97
2019-01-20T00:51:37.751Z,87.64
2019-01-20T00:52:08.930Z,87.41
2019-01-20T00:52:40.084Z,87.40
2019-01-20T00:53:11.265Z,87.45
2019-01-20T00:53:42.472Z,87.46
2019-01-20T00:54:13.706Z,87.26
2019-01-20T00:54:44.916Z,86.95
2019-01-20T00:55:18.316Z,86.81
2019-01-20T00:55:49.526Z,86.78
2019-01-20T00:56:20.689Z,86.84
2019-01-20T00:56:51.852Z,86.89
2019-01-20T00:57:23.014Z,86.94
2019-01-20T00:57:54.187Z,87.02
2019-01-20T00:58:25.369Z,87.00
2019-01-20T00:58:56.583Z,87.07
2019-01-20T00:59:27.749Z,87.27
2019-01-20T00:59:58.931Z,87.46
2019-01-20T01:00:32.210Z,87.46
2019-01-20T01:01:03.372Z,87.61
2019-01-20T01:01:34.590Z,87.86
2019-01-20T01:02:05.759Z,88.01
2019-01-20T01:02:36.935Z,88.07
2019-01-20T01:03:08.095Z,88.13
2019-01-20T01:03:39.269Z,88.08
2019-01-20T01:04:10.429Z,88.02
2019-01-20T01:04:43.861Z,88.03
2019-01-20T01:05:15.056Z,88.00
2019-01-20T01:05:46.249Z,88.02
2019-01-20T01:06:17.410Z,88.05
2019-01-20T01:06:48.580Z,88.06
2019-01-20T01:07:19.755Z,88.07
2019-01-20T01:07:50.944Z,88.03
2019-01-20T01:08:22.125Z,88.02
2019-01-20T01:08:53.314Z,88.05
2019-01-20T01:09:24.640Z,88.13
2019-01-20T01:09:55.786Z,88.27
2019-01-20T01:10:26.973Z,88.37
2019-01-20T01:10:58.133Z,88.46
2019-01-20T01:11:31.827Z,88.50
2019-01-20T01:12:02.202Z,88.55
2019-01-20T01:12:33.370Z,88.62
2019-01-20T01:13:04.537Z,88.72
2019-01-20T01:13:35.765Z,88.68
2019-01-20T01:14:06.937Z,88.47
2019-01-20T01:14:38.106Z,88.13
2019-01-20T01:15:09.290Z,87.67
2019-01-20T01:15:40.446Z,87.03
2019-01-20T01:16:11.618Z,86.29
2019-01-20T01:16:42.800Z,85.41
2019-01-20T01:17:14.004Z,85.01
2019-01-20T01:17:45.175Z,84.78
2019-01-20T01:18:16.401Z,84.45
2019-01-20T01:18:47.568Z,83.68
2019-01-20T01:19:18.742Z,83.42
2019-01-20T01:19:49.910Z,83.34
2019-01-20T01:20:21.069Z,83.39
2019-01-20T01:20:52.233Z,83.60
2019-01-20T01:21:23.408Z,83.59
2019-01-20T01:21:54.591Z,83.88
2019-01-20T01:22:25.788Z,83.95
2019-01-20T01:22:56.989Z,83.85
2019-01-20T01:23:28.203Z,83.85
2019-01-20T01:23:59.365Z,83.86
2019-01-20T01:24:30.534Z,83.87
2019-01-20T01:25:01.694Z,83.94
2019-01-20T01:25:32.856Z,84.17
2019-01-20T01:26:04.043Z,84.22
2019-01-20T01:26:36.843Z,84.40
2019-01-20T01:27:08.176Z,84.61
2019-01-20T01:27:39.370Z,84.70
2019-01-20T01:28:10.585Z,84.88
2019-01-20T01:28:42.146Z,85.01
2019-01-20T01:29:13.334Z,84.84
2019-01-20T01:29:44.498Z,84.71
2019-01-20T01:30:15.668Z,84.63
2019-01-20T01:30:46.842Z,84.34
2019-01-20T01:31:18.002Z,84.32
2019-01-20T01:31:49.164Z,84.29
2019-01-20T01:32:20.331Z,84.26
2019-01-20T01:32:51.494Z,84.37
2019-01-20T01:33:23.581Z,84.47
2019-01-20T01:33:54.756Z,84.75
2019-01-20T01:34:25.938Z,85.06
2019-01-20T01:34:57.093Z,85.33
2019-01-20T01:35:28.252Z,85.59
2019-01-20T01:35:59.501Z,85.69
2019-01-20T01:36:32.673Z,85.50
2019-01-20T01:37:03.838Z,85.43
2019-01-20T01:37:35.002Z,85.30
2019-01-20T01:38:06.186Z,85.35
2019-01-20T01:38:37.399Z,85.42
2019-01-20T01:39:08.579Z,85.51
2019-01-20T01:39:40.255Z,85.54
2019-01-20T01:40:11.412Z,85.58
2019-01-20T01:40:42.584Z,85.38
2019-01-20T01:41:13.789Z,85.21
2019-01-20T01:41:44.962Z,84.96
2019-01-20T01:42:16.120Z,84.78
2019-01-20T01:42:47.280Z,84.59
2019-01-20T01:43:18.456Z,84.50
2019-01-20T01:43:49.678Z,84.37
2019-01-20T01:44:21.154Z,83.87
2019-01-20T01:44:52.324Z,83.53
2019-01-20T01:45:23.510Z,83.33
2019-01-20T01:45:54.676Z,83.33
2019-01-20T01:46:25.854Z,83.35
2019-01-20T01:46:57.012Z,83.36
2019-01-20T01:47:28.192Z,83.42
2019-01-20T01:47:59.353Z,83.64
2019-01-20T01:48:30.527Z,83.88
2019-01-20T01:49:01.741Z,84.05
2019-01-20T01:49:33.047Z,84.33
2019-01-20T01:50:04.201Z,84.69
2019-01-20T01:50:35.885Z,84.85
2019-01-20T01:51:07.049Z,85.00
2019-01-20T01:51:38.224Z,85.07
2019-01-20T01:52:09.393Z,85.39
2019-01-20T01:52:40.560Z,85.13
2019-01-20T01:53:11.734Z,84.79
2019-01-20T01:53:45.264Z,84.46
2019-01-20T01:54:16.455Z,84.13
2019-01-20T01:54:47.619Z,84.12
2019-01-20T01:55:18.788Z,84.00
2019-01-20T01:55:49.945Z,83.90
2019-01-20T01:56:21.175Z,83.95
2019-01-20T01:56:52.346Z,83.87
2019-01-20T01:57:23.523Z,83.58
2019-01-20T01:57:54.691Z,83.27
2019-01-20T01:58:25.864Z,82.92
2019-01-20T01:58:57.032Z,82.60
2019-01-20T01:59:28.198Z,82.40
2019-01-20T01:59:59.377Z,82.49
2019-01-20T02:00:30.546Z,82.55
2019-01-20T02:01:01.717Z,82.93
2019-01-20T02:01:32.942Z,83.20
2019-01-20T02:02:04.109Z,83.40
2019-01-20T02:02:35.276Z,83.61
2019-01-20T02:03:06.455Z,83.60
2019-01-20T02:03:37.618Z,83.56
2019-01-20T02:04:08.798Z,83.49
2019-01-20T02:04:39.938Z,83.47
2019-01-20T02:05:11.097Z,83.02
2019-01-20T02:05:42.257Z,82.72
2019-01-20T02:06:14.537Z,82.08
2019-01-20T02:06:45.703Z,81.69
2019-01-20T02:07:16.861Z,81.76
2019-01-20T02:07:48.043Z,81.59
2019-01-20T02:08:19.210Z,81.43
2019-01-20T02:08:50.386Z,80.90
2019-01-20T02:09:21.546Z,80.79
2019-01-20T02:09:52.716Z,80.81
2019-01-20T02:10:23.930Z,80.91
2019-01-20T02:10:55.110Z,81.08
2019-01-20T02:11:26.276Z,81.36
2019-01-20T02:11:57.514Z,81.58
2019-01-20T02:12:28.675Z,82.00
2019-01-20T02:13:00.365Z,82.41
2019-01-20T02:13:31.541Z,82.61
2019-01-20T02:14:02.713Z,82.89
2019-01-20T02:14:33.896Z,83.19
2019-01-20T02:15:05.063Z,83.37
2019-01-20T02:15:36.238Z,83.67
2019-01-20T02:16:07.451Z,83.94
2019-01-20T02:16:38.618Z,84.06
2019-01-20T02:17:09.802Z,84.27
2019-01-20T02:17:40.961Z,84.36
2019-01-20T02:18:12.127Z,84.65
2019-01-20T02:18:43.309Z,84.87
2019-01-20T02:19:14.477Z,85.02
2019-01-20T02:19:45.646Z,85.15
2019-01-20T02:20:16.811Z,85.50
2019-01-20T02:20:47.982Z,85.65
2019-01-20T02:21:19.206Z,85.87
2019-01-20T02:21:50.376Z,85.91
2019-01-20T02:22:21.542Z,86.02
2019-01-20T02:22:52.717Z,86.09
2019-01-20T02:23:23.878Z,86.20
2019-01-20T02:23:57.378Z,86.25
2019-01-20T02:24:28.577Z,86.17
2019-01-20T02:24:59.737Z,86.08
2019-01-20T02:25:30.898Z,85.96
2019-01-20T02:26:02.066Z,85.83
2019-01-20T02:26:33.263Z,85.83
2019-01-20T02:27:04.434Z,85.82
2019-01-20T02:27:35.602Z,85.70
2019-01-20T02:28:06.773Z,85.55
2019-01-20T02:28:37.948Z,85.45
2019-01-20T02:29:09.136Z,85.41
2019-01-20T02:29:40.310Z,85.50
2019-01-20T02:30:11.482Z,85.60
2019-01-20T02:30:42.651Z,85.86
2019-01-20T02:31:13.796Z,86.15
2019-01-20T02:31:45.009Z,86.37
2019-01-20T02:32:16.183Z,86.47
2019-01-20T02:32:47.355Z,86.39
2019-01-20T02:33:18.560Z,86.30
2019-01-20T02:33:49.730Z,86.35
2019-01-20T02:34:20.916Z,86.35
2019-01-20T02:34:52.078Z,86.22
2019-01-20T02:35:23.250Z,86.15
2019-01-20T02:35:54.445Z,86.07
2019-01-20T02:36:25.629Z,86.02
2019-01-20T02:36:56.841Z,85.99
2019-01-20T02:37:30.133Z,86.01
2019-01-20T02:38:01.293Z,86.08
2019-01-20T02:38:32.457Z,86.01
2019-01-20T02:39:03.625Z,85.84
2019-01-20T02:39:34.793Z,85.66
2019-01-20T02:40:05.956Z,84.94
2019-01-20T02:40:37.135Z,84.39
2019-01-20T02:41:08.309Z,83.39
2019-01-20T02:41:39.464Z,82.95
2019-01-20T02:42:10.627Z,82.64
2019-01-20T02:42:41.883Z,82.37
2019-01-20T02:43:13.047Z,82.18
2019-01-20T02:43:44.281Z,82.09
2019-01-20T02:44:15.449Z,82.29
2019-01-20T02:44:46.629Z,82.37
2019-01-20T02:45:17.796Z,82.64
2019-01-20T02:45:48.947Z,82.87
2019-01-20T02:46:20.107Z,83.11
2019-01-20T02:46:51.262Z,83.37
2019-01-20T02:47:22.434Z,83.68
2019-01-20T02:47:53.608Z,83.86
2019-01-20T02:48:24.783Z,84.30
2019-01-20T02:48:55.939Z,84.40
2019-01-20T02:49:27.125Z,84.52
2019-01-20T02:49:58.291Z,84.57
2019-01-20T02:50:29.464Z,84.31
2019-01-20T02:51:00.637Z,84.16
2019-01-20T02:51:31.827Z,84.15
2019-01-20T02:52:03.005Z,84.08
2019-01-20T02:52:34.175Z,84.17
2019-01-20T02:53:05.349Z,83.96
2019-01-20T02:53:36.514Z,83.72
2019-01-20T02:54:07.725Z,83.62
2019-01-20T02:54:38.891Z,83.58
2019-01-20T02:55:10.083Z,83.58
2019-01-20T02:55:41.211Z,83.45
2019-01-20T02:56:12.374Z,83.42
2019-01-20T02:56:43.532Z,83.39
2019-01-20T02:57:14.693Z,83.28
2019-01-20T02:57:45.908Z,83.06
2019-01-20T02:58:17.064Z,83.01
2019-01-20T02:58:48.285Z,83.07
2019-01-20T02:59:19.462Z,82.94
2019-01-20T02:59:50.617Z,83.06
2019-01-20T03:00:21.774Z,82.98
2019-01-20T03:00:52.965Z,83.03
2019-01-20T03:01:24.159Z,82.92
2019-01-20T03:01:55.315Z,82.49
2019-01-20T03:02:26.485Z,82.37
2019-01-20T03:02:57.670Z,81.96
2019-01-20T03:03:28.849Z,81.47
2019-01-20T03:04:00.434Z,81.21
2019-01-20T03:04:31.597Z,80.57
2019-01-20T03:05:02.763Z,79.77
2019-01-20T03:05:33.939Z,79.85
2019-01-20T03:06:05.109Z,79.94
2019-01-20T03:06:36.276Z,80.00
2019-01-20T03:07:07.432Z,80.35
2019-01-20T03:07:38.603Z,80.55
2019-01-20T03:08:09.785Z,80.55
2019-01-20T03:08:40.953Z,80.62
2019-01-20T03:09:12.172Z,80.76
2019-01-20T03:09:43.332Z,80.93
2019-01-20T03:10:14.522Z,81.08
2019-01-20T03:10:45.686Z,81.37
2019-01-20T03:11:16.851Z,81.71
2019-01-20T03:11:48.008Z,81.54
2019-01-20T03:12:19.167Z,80.87
2019-01-20T03:12:50.348Z,80.20
2019-01-20T03:13:21.508Z,79.76
2019-01-20T03:13:52.704Z,79.41
2019-01-20T03:14:23.891Z,79.24
2019-01-20T03:14:55.039Z,79.12
2019-01-20T03:15:26.201Z,79.21
2019-01-20T03:15:57.366Z,79.27
2019-01-20T03:16:28.551Z,79.49
2019-01-20T03:16:59.738Z,79.63
2019-01-20T03:17:30.895Z,79.96
2019-01-20T03:18:02.055Z,80.03
2019-01-20T03:18:33.266Z,80.26
2019-01-20T03:19:04.432Z,80.47
2019-01-20T03:19:35.616Z,80.72
2019-01-20T03:20:06.774Z,80.84
2019-01-20T03:20:37.939Z,80.97
2019-01-20T03:21:09.172Z,81.17
2019-01-20T03:21:40.338Z,81.38
2019-01-20T03:22:11.496Z,81.74
2019-01-20T03:22:42.656Z,82.20
2019-01-20T03:23:13.838Z,82.55
2019-01-20T03:23:47.282Z,82.80
2019-01-20T03:24:18.438Z,83.04
2019-01-20T03:24:49.612Z,83.28
2019-01-20T03:25:20.764Z,83.60
2019-01-20T03:25:51.950Z,83.96
2019-01-20T03:26:23.205Z,84.13
2019-01-20T03:26:54.358Z,84.45
2019-01-20T03:27:25.534Z,84.80
2019-01-20T03:27:56.766Z,85.22
2019-01-20T03:28:27.956Z,85.49
2019-01-20T03:28:59.140Z,85.71
2019-01-20T03:29:30.312Z,85.87
2019-01-20T03:30:01.514Z,85.94
2019-01-20T03:30:32.662Z,86.30
2019-01-20T03:31:03.859Z,86.31
2019-01-20T03:31:35.070Z,86.19
2019-01-20T03:32:06.232Z,86.26
2019-01-20T03:32:37.396Z,86.23
2019-01-20T03:33:08.580Z,85.98
2019-01-20T03:33:39.729Z,85.56
2019-01-20T03:34:10.894Z,85.19
2019-01-20T03:34:42.056Z,84.94
2019-01-20T03:35:14.162Z,84.96
2019-01-20T03:35:46.094Z,84.89
2019-01-20T03:36:19.582Z,85.08
2019-01-20T03:36:50.747Z,85.26
2019-01-20T03:37:21.915Z,85.23
2019-01-20T03:37:53.083Z,85.20
2019-01-20T03:38:24.322Z,84.93
2019-01-20T03:38:55.490Z,84.70
2019-01-20T03:39:26.653Z,84.66
2019-01-20T03:39:57.823Z,84.74
2019-01-20T03:40:28.993Z,84.77
2019-01-20T03:41:00.171Z,84.74
2019-01-20T03:41:31.342Z,84.77
2019-01-20T03:42:02.552Z,84.93
2019-01-20T03:42:33.708Z,85.01
2019-01-20T03:43:04.887Z,85.18
2019-01-20T03:43:36.083Z,85.18
2019-01-20T03:44:07.263Z,85.25
2019-01-20T03:44:38.470Z,85.36
2019-01-20T03:45:09.660Z,85.46
2019-01-20T03:45:40.896Z,85.44
2019-01-20T03:46:12.045Z,85.60
2019-01-20T03:46:43.199Z,85.46
2019-01-20T03:47:14.367Z,85.31
2019-01-20T03:47:45.567Z,84.51
2019-01-20T03:48:16.704Z,84.11
2019-01-20T03:48:47.882Z,83.48
2019-01-20T03:49:19.055Z,82.79
2019-01-20T03:49:50.269Z,82.80
2019-01-20T03:50:21.461Z,82.78
2019-01-20T03:50:52.626Z,82.88
2019-01-20T03:51:23.799Z,82.96
2019-01-20T03:51:54.981Z,83.01
2019-01-20T03:52:26.146Z,83.15
2019-01-20T03:52:57.695Z,83.17
2019-01-20T03:53:28.850Z,83.36
2019-01-20T03:54:00.040Z,83.65
2019-01-20T03:54:31.242Z,83.88
2019-01-20T03:55:02.412Z,83.92
2019-01-20T03:55:33.585Z,84.11
2019-01-20T03:56:04.754Z,84.11
2019-01-20T03:56:35.932Z,84.10
2019-01-20T03:57:07.125Z,84.26
2019-01-20T03:57:38.287Z,84.30
2019-01-20T03:58:09.453Z,84.60
2019-01-20T03:58:40.625Z,84.73
2019-01-20T03:59:11.795Z,84.96
2019-01-20T03:59:42.996Z,84.96
2019-01-20T04:00:14.163Z,84.86
2019-01-20T04:00:45.327Z,84.89
2019-01-20T04:01:16.535Z,84.94
2019-01-20T04:01:47.694Z,85.07
2019-01-20T04:02:18.863Z,85.20
2019-01-20T04:02:50.022Z,85.39
2019-01-20T04:03:23.233Z,85.47
2019-01-20T04:03:54.405Z,85.64
2019-01-20T04:04:25.565Z,85.68
2019-01-20T04:04:56.730Z,85.93
2019-01-20T04:05:27.893Z,85.99
2019-01-20T04:05:59.123Z,86.12
2019-01-20T04:06:30.288Z,86.18
2019-01-20T04:07:01.449Z,86.26
2019-01-20T04:07:32.622Z,86.34
2019-01-20T04:08:03.808Z,86.47
2019-01-20T04:08:34.964Z,86.68
2019-01-20T04:09:06.148Z,86.79
2019-01-20T04:09:37.334Z,86.79
2019-01-20T04:10:08.495Z,86.76
2019-01-20T04:10:39.726Z,86.68
2019-01-20T04:11:10.887Z,86.61
2019-01-20T04:11:42.098Z,86.46
2019-01-20T04:12:20.426Z,86.35
2019-01-20T04:12:46.191Z,86.13
2019-01-20T04:13:17.359Z,85.72
2019-01-20T04:13:48.533Z,85.58
2019-01-20T04:14:19.705Z,85.36
2019-01-20T04:14:50.872Z,85.19
2019-01-20T04:15:22.056Z,84.79
2019-01-20T04:15:53.288Z,84.45
2019-01-20T04:16:24.454Z,84.29
2019-01-20T04:16:55.675Z,84.20
2019-01-20T04:17:26.865Z,84.22
2019-01-20T04:17:58.032Z,84.27
2019-01-20T04:18:29.197Z,84.25
2019-01-20T04:19:00.372Z,84.39
2019-01-20T04:19:31.549Z,84.65
2019-01-20T04:20:02.721Z,85.05
2019-01-20T04:20:33.901Z,85.21
2019-01-20T04:21:05.113Z,85.26
2019-01-20T04:21:36.295Z,85.26
2019-01-20T04:22:07.475Z,85.39
2019-01-20T04:22:38.634Z,85.68
2019-01-20T04:23:09.881Z,85.96
2019-01-20T04:23:41.073Z,86.07
2019-01-20T04:24:12.235Z,86.13
2019-01-20T04:24:43.399Z,86.17
2019-01-20T04:25:14.577Z,86.26
2019-01-20T04:25:45.749Z,86.34
2019-01-20T04:26:16.973Z,86.42
2019-01-20T04:26:48.132Z,86.48
2019-01-20T04:27:19.316Z,86.66
2019-01-20T04:27:50.484Z,86.92
2019-01-20T04:28:21.642Z,87.05
2019-01-20T04:28:52.805Z,87.10
2019-01-20T04:29:23.979Z,87.04
2019-01-20T04:29:55.137Z,87.00
2019-01-20T04:30:26.289Z,86.96
2019-01-20T04:30:57.449Z,87.00
2019-01-20T04:31:28.659Z,86.91
2019-01-20T04:31:59.835Z,86.95
2019-01-20T04:32:30.999Z,86.97
2019-01-20T04:33:02.169Z,87.14
2019-01-20T04:33:33.331Z,87.28
2019-01-20T04:34:04.497Z,87.42
2019-01-20T04:34:35.671Z,87.42
2019-01-20T04:35:06.826Z,87.46
2019-01-20T04:35:37.991Z,87.48
2019-01-20T04:36:09.216Z,87.54
2019-01-20T04:36:40.388Z,87.79
2019-01-20T04:37:11.567Z,87.88
2019-01-20T04:37:42.746Z,87.91
2019-01-20T04:38:13.900Z,87.97
2019-01-20T04:38:45.058Z,88.05
2019-01-20T04:39:16.229Z,88.05
2019-01-20T04:39:47.390Z,88.04
2019-01-20T04:40:18.555Z,88.10
2019-01-20T04:40:49.713Z,88.09
2019-01-20T04:41:20.915Z,88.05
2019-01-20T04:41:52.074Z,88.07
2019-01-20T04:42:28.972Z,88.00
2019-01-20T04:42:56.164Z,87.98
2019-01-20T04:43:27.330Z,87.80
2019-01-20T04:43:58.500Z,87.74
2019-01-20T04:44:29.676Z,87.71
2019-01-20T04:45:00.831Z,87.73
2019-01-20T04:45:31.996Z,87.73
2019-01-20T04:46:03.168Z,87.75
2019-01-20T04:46:34.339Z,87.76
2019-01-20T04:47:05.504Z,87.88
2019-01-20T04:47:36.722Z,87.97
2019-01-20T04:48:07.876Z,88.05
2019-01-20T04:48:39.037Z,88.24
2019-01-20T04:49:10.217Z,88.40
2019-01-20T04:49:41.386Z,88.67
2019-01-20T04:50:12.557Z,88.68
2019-01-20T04:50:43.727Z,88.66
2019-01-20T04:51:15.779Z,88.62
2019-01-20T04:51:46.950Z,88.62
2019-01-20T04:52:18.110Z,88.56
2019-01-20T04:52:49.330Z,88.47
2019-01-20T04:53:20.491Z,88.38
2019-01-20T04:53:51.647Z,88.39
2019-01-20T04:54:22.813Z,88.41
2019-01-20T04:54:53.971Z,88.29
2019-01-20T04:55:25.137Z,88.14
2019-01-20T04:55:58.571Z,88.12
2019-01-20T04:56:29.732Z,88.07
2019-01-20T04:57:00.894Z,88.01
2019-01-20T04:57:32.103Z,87.92
2019-01-20T04:58:03.278Z,87.87
2019-01-20T04:58:34.451Z,87.96
2019-01-20T04:59:05.616Z,88.03
2019-01-20T04:59:36.797Z,88.17
2019-01-20T05:00:07.948Z,88.35
2019-01-20T05:00:39.134Z,88.46
2019-01-20T05:01:10.322Z,88.51
2019-01-20T05:01:41.490Z,88.49
2019-01-20T05:02:12.700Z,88.41
2019-01-20T05:02:43.868Z,88.17
2019-01-20T05:03:15.081Z,88.07
2019-01-20T05:03:46.265Z,88.08
2019-01-20T05:04:17.475Z,88.15
2019-01-20T05:04:48.653Z,88.33
2019-01-20T05:05:19.821Z,88.57
2019-01-20T05:05:51.004Z,88.72
2019-01-20T05:06:22.161Z,88.89
2019-01-20T05:06:55.461Z,88.97
2019-01-20T05:07:26.639Z,89.03
2019-01-20T05:07:57.795Z,88.95
2019-01-20T05:08:28.960Z,88.87
2019-01-20T05:09:00.165Z,88.73
2019-01-20T05:09:31.334Z,88.60
2019-01-20T05:10:02.490Z,88.59
2019-01-20T05:10:33.713Z,88.63
2019-01-20T05:11:04.883Z,88.71
2019-01-20T05:11:36.073Z,88.76
2019-01-20T05:12:07.241Z,88.74
2019-01-20T05:12:38.409Z,88.70
2019-01-20T05:13:09.583Z,88.74
2019-01-20T05:13:40.753Z,88.79
2019-01-20T05:14:11.913Z,88.85
2019-01-20T05:14:43.101Z,88.87
2019-01-20T05:15:14.249Z,88.87
2019-01-20T05:15:45.469Z,88.93
2019-01-20T05:16:16.636Z,88.94
2019-01-20T05:16:47.803Z,88.96
2019-01-20T05:17:18.966Z,88.93
2019-01-20T05:17:50.140Z,88.93
2019-01-20T05:18:21.310Z,88.93
2019-01-20T05:18:52.476Z,88.86
2019-01-20T05:19:23.639Z,88.77
2019-01-20T05:19:54.817Z,88.75
2019-01-20T05:20:25.979Z,88.70
2019-01-20T05:20:57.169Z,88.63
2019-01-20T05:21:28.342Z,88.53
2019-01-20T05:21:59.513Z,88.29
2019-01-20T05:22:30.677Z,88.23
2019-01-20T05:23:01.841Z,88.18
2019-01-20T05:23:33.008Z,88.12
2019-01-20T05:24:04.171Z,88.15
2019-01-20T05:24:35.344Z,88.22
2019-01-20T05:25:06.499Z,88.27
2019-01-20T05:25:37.710Z,88.40
2019-01-20T05:26:08.889Z,88.44
2019-01-20T05:26:40.063Z,88.49
2019-01-20T05:27:11.239Z,88.58
2019-01-20T05:27:42.410Z,88.57
2019-01-20T05:28:13.622Z,88.63
2019-01-20T05:28:44.791Z,88.73
2019-01-20T05:29:15.966Z,88.93
2019-01-20T05:29:47.130Z,89.04
2019-01-20T05:30:18.296Z,89.08
2019-01-20T05:30:49.442Z,88.87
2019-01-20T05:31:20.597Z,88.53
2019-01-20T05:31:51.808Z,87.97
2019-01-20T05:32:22.965Z,87.60
2019-01-20T05:32:54.130Z,87.48
2019-01-20T05:33:25.286Z,87.44
2019-01-20T05:33:56.440Z,87.36
2019-01-20T05:34:27.607Z,87.36
2019-01-20T05:34:58.773Z,87.21
2019-01-20T05:35:29.938Z,86.98
2019-01-20T05:36:01.149Z,86.93
2019-01-20T05:36:32.338Z,86.94
2019-01-20T05:37:03.490Z,86.92
2019-01-20T05:37:34.703Z,86.86
2019-01-20T05:38:05.868Z,86.77
2019-01-20T05:38:37.026Z,86.79
2019-01-20T05:39:08.207Z,86.72
2019-01-20T05:39:39.428Z,86.62
2019-01-20T05:40:10.898Z,86.47
2019-01-20T05:40:42.122Z,86.37
2019-01-20T05:41:13.297Z,86.31
2019-01-20T05:41:44.453Z,86.24
2019-01-20T05:42:15.618Z,86.21
2019-01-20T05:42:46.944Z,86.13
2019-01-20T05:43:18.153Z,86.21
2019-01-20T05:43:49.311Z,86.39
2019-01-20T05:44:20.531Z,86.56
2019-01-20T05:44:51.715Z,86.52
2019-01-20T05:45:22.866Z,86.42
2019-01-20T05:45:54.029Z,86.19
2019-01-20T05:46:25.183Z,85.76
2019-01-20T05:46:56.358Z,85.52
2019-01-20T05:47:27.535Z,85.46
2019-01-20T05:47:58.689Z,85.46
2019-01-20T05:48:29.905Z,85.52
2019-01-20T05:49:01.068Z,85.61
2019-01-20T05:49:32.223Z,85.75
2019-01-20T05:50:03.394Z,85.84
2019-01-20T05:50:34.550Z,85.71
2019-01-20T05:51:05.707Z,85.88
2019-01-20T05:51:36.870Z,85.89
2019-01-20T05:52:08.039Z,85.79
2019-01-20T05:52:39.290Z,85.79
2019-01-20T05:53:10.403Z,85.66
2019-01-20T05:53:41.610Z,85.78
2019-01-20T05:54:12.777Z,85.74
2019-01-20T05:54:43.955Z,85.62
2019-01-20T05:55:15.163Z,85.55
2019-01-20T05:55:46.324Z,85.49
2019-01-20T05:56:17.505Z,85.52
2019-01-20T05:56:48.650Z,85.60
2019-01-20T05:57:19.821Z,85.69
2019-01-20T05:57:50.989Z,85.97
2019-01-20T05:58:22.150Z,86.09
2019-01-20T05:58:53.304Z,86.22
2019-01-20T05:59:24.526Z,86.35
2019-01-20T05:59:55.695Z,86.69
2019-01-20T06:00:26.865Z,86.80
2019-01-20T06:01:00.338Z,86.84
2019-01-20T06:01:31.504Z,86.64
2019-01-20T06:02:02.673Z,86.23
2019-01-20T06:02:33.846Z,85.76
2019-01-20T06:03:05.012Z,85.35
2019-01-20T06:03:36.193Z,85.05
2019-01-20T06:04:07.351Z,84.68
2019-01-20T06:04:38.510Z,84.62
2019-01-20T06:05:09.678Z,84.58
2019-01-20T06:05:40.859Z,84.52
2019-01-20T06:06:12.095Z,84.50
2019-01-20T06:06:43.259Z,84.71
2019-01-20T06:07:14.436Z,84.90
2019-01-20T06:07:45.598Z,84.96
2019-01-20T06:08:16.768Z,84.94
2019-01-20T06:08:47.927Z,84.87
2019-01-20T06:09:19.088Z,84.60
2019-01-20T06:09:50.265Z,84.34
2019-01-20T06:10:21.430Z,84.17
2019-01-20T06:10:52.996Z,84.13
2019-01-20T06:11:24.216Z,84.11
2019-01-20T06:11:55.395Z,84.19
2019-01-20T06:12:26.558Z,84.22
2019-01-20T06:12:57.731Z,84.26
2019-01-20T06:13:28.948Z,84.45
2019-01-20T06:14:00.114Z,84.60
2019-01-20T06:14:31.278Z,84.62
2019-01-20T06:15:02.491Z,84.77
2019-01-20T06:15:33.673Z,85.05
2019-01-20T06:16:04.837Z,85.54
2019-01-20T06:16:36.049Z,85.74
2019-01-20T06:17:07.234Z,85.87
2019-01-20T06:17:38.411Z,85.98
2019-01-20T06:18:09.575Z,86.11
2019-01-20T06:18:40.791Z,86.13
2019-01-20T06:19:11.971Z,86.28
2019-01-20T06:19:43.138Z,86.65
2019-01-20T06:20:14.316Z,86.81
2019-01-20T06:20:45.481Z,87.00
2019-01-20T06:21:16.666Z,87.30
2019-01-20T06:21:47.854Z,87.47
2019-01-20T06:22:19.043Z,87.63
2019-01-20T06:22:50.229Z,87.53
2019-01-20T06:23:21.451Z,87.28
2019-01-20T06:23:52.622Z,87.15
2019-01-20T06:24:23.785Z,87.06
2019-01-20T06:24:54.944Z,86.95
2019-01-20T06:25:26.108Z,86.95
2019-01-20T06:25:57.294Z,86.87
2019-01-20T06:26:28.526Z,86.85
2019-01-20T06:26:59.686Z,86.95
2019-01-20T06:27:30.858Z,87.06
2019-01-20T06:28:02.027Z,87.25
2019-01-20T06:28:33.218Z,87.36
2019-01-20T06:29:04.360Z,87.40
2019-01-20T06:29:35.528Z,87.41
2019-01-20T06:30:06.703Z,87.29
2019-01-20T06:30:37.882Z,87.27
2019-01-20T06:31:09.080Z,87.25
2019-01-20T06:31:40.269Z,87.40
2019-01-20T06:32:11.452Z,87.55
2019-01-20T06:32:42.606Z,87.62
2019-01-20T06:33:13.794Z,87.72
2019-01-20T06:33:44.980Z,87.68
2019-01-20T06:34:16.187Z,87.68
2019-01-20T06:34:48.874Z,87.73
2019-01-20T06:35:20.202Z,87.84
2019-01-20T06:35:51.360Z,87.89
2019-01-20T06:36:22.527Z,87.88
2019-01-20T06:36:53.698Z,88.01
2019-01-20T06:37:24.852Z,88.10
2019-01-20T06:37:56.034Z,88.02
2019-01-20T06:38:27.248Z,87.89
2019-01-20T06:38:58.431Z,87.92
2019-01-20T06:39:29.587Z,87.96
2019-01-20T06:40:00.781Z,87.90
2019-01-20T06:40:31.982Z,88.05
2019-01-20T06:41:03.153Z,88.23
2019-01-20T06:41:34.335Z,88.46
2019-01-20T06:42:05.506Z,88.61